Time;durP1;ratioP1;P1;durP2;ratioP2;P2;SDS_P1;SDS_P2;PMS_P1;PMS_P2;Temp;Humidity;BMP_temperature;BMP_pressure;BME280_temperature;BME280_humidity;BME280_pressure;Samples;Min_cycle;Max_cycle;Signal;HPM_P1;HPM_P2
2022/07/29 00:00:15;;;;;;;8.32;7.63;;;;;;;21.24;66.39;95071.78;5056488;28;20206;-68
2022/07/29 00:02:43;;;;;;;8.52;7.82;;;;;;;21.18;66.57;95075.47;5056223;28;20201;-68
2022/07/29 00:05:13;;;;;;;9.65;8.93;;;;;;;21.16;66.33;95078.69;5072742;28;20197;-68
2022/07/29 00:07:41;;;;;;;8.75;7.95;;;;;;;21.18;66.29;95084.69;5056178;28;20251;-68
2022/07/29 00:10:11;;;;;;;8.50;7.70;;;;;;;21.23;66.33;95078.59;5056282;28;20287;-68
2022/07/29 00:12:39;;;;;;;8.27;7.55;;;;;;;21.28;66.56;95077.31;5072713;28;20206;-68
2022/07/29 00:15:06;;;;;;;8.50;7.80;;;;;;;21.25;66.60;95076.16;5057396;28;20182;-68
2022/07/29 00:17:36;;;;;;;8.40;7.70;;;;;;;21.24;65.57;95071.78;5056139;28;20194;-68
2022/07/29 00:20:05;;;;;;;9.05;8.23;;;;;;;21.31;65.69;95070.84;5056591;28;20222;-68
2022/07/29 00:22:35;;;;;;;8.85;8.13;;;;;;;21.30;65.09;95061.66;5056988;28;20193;-68
2022/07/29 00:25:03;;;;;;;9.27;8.48;;;;;;;21.25;66.28;95062.13;5056101;28;20209;-68
2022/07/29 00:27:35;;;;;;;8.23;7.45;;;;;;;21.16;66.50;95065.44;5055588;28;20613;-68
2022/07/29 00:30:04;;;;;;;8.95;8.15;;;;;;;21.07;67.13;95070.00;5072714;28;20292;-68
2022/07/29 00:32:32;;;;;;;8.40;7.60;;;;;;;21.00;67.31;95062.47;5056700;28;20248;-68
2022/07/29 00:37:46;;;;;;;8.88;7.80;;;;;;;20.94;67.87;95075.38;5056381;28;20182;-68
2022/07/29 00:40:14;;;;;;;9.43;8.52;;;;;;;20.94;67.97;95074.56;5072266;28;20560;-68
2022/07/29 00:42:49;;;;;;;8.73;8.05;;;;;;;20.94;67.64;95078.16;5056511;28;20205;-68
2022/07/29 00:45:16;;;;;;;9.18;8.27;;;;;;;20.95;67.70;95074.16;5056242;28;20193;-68
2022/07/29 00:47:45;;;;;;;8.50;7.30;;;;;;;20.90;66.90;95085.84;5056468;28;20190;-68
2022/07/29 00:50:16;;;;;;;8.27;7.57;;;;;;;20.83;67.19;95080.31;5055333;28;20240;-68
2022/07/29 00:52:46;;;;;;;7.85;7.25;;;;;;;20.78;67.31;95078.78;5056342;28;20225;-68
2022/07/29 00:55:14;;;;;;;9.15;8.35;;;;;;;20.76;67.26;95074.78;5056066;28;20512;-67
2022/07/29 00:57:44;;;;;;;9.40;8.55;;;;;;;20.71;67.48;95078.84;5056138;28;20190;-67
2022/07/29 01:00:18;;;;;;;8.85;8.15;;;;;;;20.71;67.17;95078.06;5056308;28;20224;-67
2022/07/29 01:02:48;;;;;;;8.35;7.65;;;;;;;20.67;67.59;95078.09;5055950;28;20239;-67
2022/07/29 01:05:17;;;;;;;8.85;8.00;;;;;;;20.67;67.20;95075.31;5056354;28;20201;-68
2022/07/29 01:07:46;;;;;;;8.52;7.72;;;;;;;20.64;67.35;95059.31;5056203;28;20196;-68
2022/07/29 01:10:16;;;;;;;8.40;7.70;;;;;;;20.57;67.33;95054.59;5072217;28;20200;-68
2022/07/29 01:12:45;;;;;;;8.70;7.90;;;;;;;20.51;67.65;95055.47;5055543;28;20205;-68
2022/07/29 01:15:15;;;;;;;9.20;8.35;;;;;;;20.45;67.78;95052.31;5056064;28;20201;-68
2022/07/29 01:17:46;;;;;;;8.75;7.95;;;;;;;20.39;67.79;95051.97;5055596;28;20529;-68
2022/07/29 01:20:19;;;;;;;9.50;8.25;;;;;;;20.32;68.02;95054.06;5056084;28;20209;-68
2022/07/29 01:23:10;;;;;;;8.90;8.13;;;;;;;20.23;68.81;95054.56;5055300;28;20233;-68
2022/07/29 01:25:59;;;;;;;8.88;7.85;;;;;;;20.21;68.39;95051.34;5050853;28;20625;-68
2022/07/29 01:29:16;;;;;;;9.02;8.18;;;;;;;20.13;69.26;95047.06;5055729;28;20185;-68
2022/07/29 01:32:07;;;;;;;9.32;8.48;;;;;;;20.08;69.52;95048.31;4988096;28;20235;-68
2022/07/29 01:34:46;;;;;;;9.30;8.50;;;;;;;20.10;69.31;95050.69;5014032;28;20619;-68
2022/07/29 01:37:19;;;;;;;9.02;8.23;;;;;;;20.17;69.01;95051.41;4997684;28;20290;-68
2022/07/29 01:39:49;;;;;;;9.40;8.55;;;;;;;20.18;69.23;95041.78;5014190;28;20350;-68
2022/07/29 01:42:22;;;;;;;9.40;8.50;;;;;;;20.19;69.51;95045.41;4996819;28;20217;-68
2022/07/29 01:44:55;;;;;;;10.15;9.13;;;;;;;20.14;69.52;95046.63;5013926;28;20226;-68
2022/07/29 01:47:28;;;;;;;10.27;9.27;;;;;;;20.18;68.93;95044.56;4997503;28;20199;-68
2022/07/29 01:49:57;;;;;;;9.50;8.70;;;;;;;20.18;69.15;95035.38;5013972;28;20203;-68
2022/07/29 01:52:29;;;;;;;9.98;9.07;;;;;;;20.23;69.17;95040.56;4997437;28;20214;-67
2022/07/29 01:55:00;;;;;;;9.20;8.40;;;;;;;20.26;68.35;95041.69;5013833;28;20195;-67
2022/07/29 01:57:30;;;;;;;9.32;8.52;;;;;;;20.28;68.78;95039.28;4997327;28;20207;-68
2022/07/29 02:00:00;;;;;;;9.75;8.70;;;;;;;20.30;68.19;95040.47;5013876;28;20226;-68
2022/07/29 02:02:31;;;;;;;9.38;8.43;;;;;;;20.31;68.78;95036.47;4997261;28;20391;-68
2022/07/29 02:05:01;;;;;;;8.88;8.07;;;;;;;20.30;68.73;95036.84;5009908;28;20213;-68
2022/07/29 02:07:32;;;;;;;9.35;8.55;;;;;;;20.33;68.11;95027.63;5070824;28;20205;-68
2022/07/29 02:10:01;;;;;;;9.15;8.15;;;;;;;20.33;67.58;95031.22;5055080;28;20197;-68
2022/07/29 02:12:30;;;;;;;8.80;7.90;;;;;;;20.33;67.79;95022.81;5055263;28;20190;-68
2022/07/29 02:15:01;;;;;;;9.02;8.23;;;;;;;20.33;68.02;95030.44;5055051;28;20194;-68
2022/07/29 02:17:32;;;;;;;9.13;8.32;;;;;;;20.26;68.73;95022.09;5070809;28;20193;-68
2022/07/29 02:20:02;;;;;;;9.15;8.20;;;;;;;20.27;68.62;95023.72;5070883;28;20595;-68
2022/07/29 02:22:32;;;;;;;8.93;8.05;;;;;;;20.29;68.64;95024.88;5055046;28;20196;-68
2022/07/29 02:24:59;;;;;;;8.30;7.60;;;;;;;20.29;68.90;95021.28;5070944;28;20216;-68
2022/07/29 02:27:29;;;;;;;9.30;8.50;;;;;;;20.27;68.42;95018.09;5055221;28;20177;-68
2022/07/29 02:29:57;;;;;;;9.52;8.45;;;;;;;20.26;67.48;95014.53;5055005;28;20182;-68
2022/07/29 02:32:28;;;;;;;8.80;7.70;;;;;;;20.26;67.76;95010.91;5053524;28;20264;-68
2022/07/29 02:34:59;;;;;;;8.93;8.10;;;;;;;20.27;67.71;95016.09;5054589;28;20570;-68
2022/07/29 02:37:28;;;;;;;8.90;8.05;;;;;;;20.27;67.95;95004.91;5054471;28;20491;-68
2022/07/29 02:39:58;;;;;;;9.13;8.32;;;;;;;20.29;67.08;95004.47;5054719;28;20652;-68
2022/07/29 02:42:28;;;;;;;8.48;7.75;;;;;;;20.31;66.83;95013.25;5054801;28;20209;-68
2022/07/29 02:44:55;;;;;;;8.77;7.97;;;;;;;20.26;66.60;94996.91;5054237;28;20205;-68
2022/07/29 02:47:26;;;;;;;8.63;7.88;;;;;;;20.22;66.72;95004.53;5070568;28;20201;-68
2022/07/29 02:50:00;;;;;;;8.80;7.93;;;;;;;20.25;67.23;95006.53;5054930;28;20186;-68
2022/07/29 02:52:35;;;;;;;8.40;7.55;;;;;;;20.27;67.69;95001.31;5054754;28;20511;-68
2022/07/29 02:55:16;;;;;;;8.27;7.57;;;;;;;20.26;68.75;95000.53;5058347;28;20186;-68
2022/07/29 02:57:48;;;;;;;8.55;7.85;;;;;;;20.27;68.33;94996.50;5057530;28;20590;-68
2022/07/29 03:00:18;;;;;;;8.82;7.93;;;;;;;20.26;68.88;94999.69;5058477;28;20209;-67
2022/07/29 03:02:51;;;;;;;8.60;7.78;;;;;;;20.25;69.03;94996.09;5058241;28;20186;-67
2022/07/29 03:05:21;;;;;;;8.93;8.13;;;;;;;20.23;68.84;95004.16;5057701;28;20287;-67
2022/07/29 03:07:53;;;;;;;8.98;7.90;;;;;;;20.23;69.03;95000.56;5057502;28;20202;-67
2022/07/29 03:10:20;;;;;;;8.75;7.85;;;;;;;20.22;69.02;94999.75;5057093;28;20221;-67
2022/07/29 03:12:47;;;;;;;9.38;8.57;;;;;;;20.20;69.11;95004.97;5058220;28;20186;-67
2022/07/29 03:15:14;;;;;;;9.13;8.23;;;;;;;20.16;68.36;95007.03;5074012;28;20197;-67
2022/07/29 03:17:43;;;;;;;9.48;8.57;;;;;;;20.16;69.02;95009.81;5058119;28;20189;-67
2022/07/29 03:20:11;;;;;;;10.48;9.48;;;;;;;20.12;69.60;95015.47;5074334;28;20552;-67
2022/07/29 03:22:43;;;;;;;9.90;9.00;;;;;;;20.11;69.39;95019.44;5058117;28;20190;-67
2022/07/29 03:25:10;;;;;;;9.75;8.85;;;;;;;20.13;69.50;95017.03;5057151;28;20205;-67
2022/07/29 03:27:38;;;;;;;10.30;8.88;;;;;;;20.08;70.11;95014.72;5056713;28;20198;-67
2022/07/29 03:30:08;;;;;;;10.32;9.27;;;;;;;20.00;69.64;95021.56;5074227;28;20198;-67
2022/07/29 03:32:37;;;;;;;9.80;8.85;;;;;;;20.02;69.35;95024.75;5057126;28;20242;-67
2022/07/29 03:35:05;;;;;;;9.93;8.93;;;;;;;19.99;70.32;95022.78;5057562;28;20190;-67
2022/07/29 03:37:36;;;;;;;10.70;9.27;;;;;;;19.99;70.37;95019.97;5057692;28;20193;-66
2022/07/29 03:40:08;;;;;;;9.95;8.93;;;;;;;20.00;70.01;95024.38;5057006;28;20274;-66
2022/07/29 03:42:41;;;;;;;9.70;8.85;;;;;;;19.99;69.69;95014.38;5057515;28;20184;-67
2022/07/29 03:45:13;;;;;;;11.02;9.57;;;;;;;19.95;69.94;95019.22;5057023;28;20205;-66
2022/07/29 03:47:45;;;;;;;11.30;9.73;;;;;;;19.95;70.12;95019.22;5057481;28;20194;-67
2022/07/29 03:50:13;;;;;;;10.15;9.25;;;;;;;19.96;70.07;95021.59;5057500;28;20194;-65
2022/07/29 03:52:41;;;;;;;11.02;9.98;;;;;;;19.99;70.53;95022.78;5057190;28;20194;-65
2022/07/29 03:55:11;;;;;;;14.13;10.45;;;;;;;20.02;70.57;95024.75;5056908;28;20601;-65
2022/07/29 03:57:40;;;;;;;10.45;9.45;;;;;;;19.99;70.07;95028.38;5057155;28;20198;-65
2022/07/29 04:00:09;;;;;;;11.30;10.30;;;;;;;19.99;69.96;95024.78;5056380;28;20218;-65
2022/07/29 04:02:39;;;;;;;10.77;9.73;;;;;;;20.01;69.92;95030.75;5056936;28;20208;-65
2022/07/29 04:05:06;;;;;;;10.30;9.50;;;;;;;20.02;69.36;95027.56;5055695;28;20579;-65
2022/07/29 04:07:33;;;;;;;10.05;9.15;;;;;;;20.02;69.94;95024.75;5057284;28;20182;-65
2022/07/29 04:10:01;;;;;;;10.07;9.18;;;;;;;20.02;69.62;95019.16;5056389;28;20271;-65
2022/07/29 04:12:37;;;;;;;10.45;9.45;;;;;;;20.02;69.78;95032.38;5056427;28;20198;-66
2022/07/29 04:15:05;;;;;;;10.68;9.68;;;;;;;20.02;69.86;95026.78;5057139;28;20182;-66
2022/07/29 04:17:33;;;;;;;10.32;9.32;;;;;;;20.01;70.03;95028.78;5055399;28;20206;-66
2022/07/29 04:20:01;;;;;;;10.70;9.68;;;;;;;19.99;69.79;95022.00;5055768;28;20667;-66
2022/07/29 04:22:29;;;;;;;11.23;10.15;;;;;;;19.99;70.03;95027.59;5056933;28;20178;-66
2022/07/29 04:24:57;;;;;;;11.65;10.40;;;;;;;19.98;69.96;95029.59;5056983;28;20205;-66
2022/07/29 04:27:26;;;;;;;11.85;10.82;;;;;;;19.98;70.19;95032.41;5055979;28;20541;-66
2022/07/29 04:29:56;;;;;;;10.85;9.77;;;;;;;19.99;70.03;95033.19;5056387;28;20205;-66
2022/07/29 04:32:22;;;;;;;11.65;10.45;;;;;;;19.95;70.20;95039.63;5056476;28;20299;-66
2022/07/29 04:34:49;;;;;;;11.95;10.85;;;;;;;19.96;69.95;95037.59;5055681;28;20197;-65
2022/07/29 04:37:17;;;;;;;11.35;10.35;;;;;;;20.01;69.81;95033.56;5055898;28;20202;-65
2022/07/29 04:39:45;;;;;;;10.98;10.00;;;;;;;20.03;69.59;95036.75;5056532;28;20206;-65
2022/07/29 04:42:13;;;;;;;11.30;10.20;;;;;;;20.10;68.97;95031.06;5055897;28;20197;-65
2022/07/29 04:44:42;;;;;;;10.90;9.80;;;;;;;20.06;70.17;95036.72;5056347;28;20178;-65
2022/07/29 04:47:12;;;;;;;11.65;10.63;;;;;;;20.07;69.60;95045.91;5056545;28;20197;-67
2022/07/29 04:49:40;;;;;;;11.40;10.30;;;;;;;20.07;69.63;95046.69;5056576;28;20197;-67
2022/07/29 04:52:08;;;;;;;11.75;10.55;;;;;;;20.11;70.00;95050.25;5055682;28;20205;-66
2022/07/29 04:54:35;;;;;;;11.60;10.50;;;;;;;20.22;69.76;95057.75;5056563;28;20182;-66
2022/07/29 04:57:03;;;;;;;10.95;10.02;;;;;;;20.22;69.23;95052.94;5055144;28;20213;-66
2022/07/29 04:59:31;;;;;;;11.27;10.25;;;;;;;20.20;69.66;95052.59;5054999;28;20201;-67
2022/07/29 05:01:59;;;;;;;12.13;11.02;;;;;;;20.26;69.18;95062.13;5056196;28;20255;-67
2022/07/29 05:04:30;;;;;;;11.70;10.70;;;;;;;20.29;69.40;95055.66;5056316;28;20190;-67
2022/07/29 05:06:57;;;;;;;13.02;11.90;;;;;;;20.30;69.39;95048.88;5055180;28;20284;-67
2022/07/29 05:09:24;;;;;;;13.90;12.60;;;;;;;20.34;69.43;95054.44;5054837;28;20628;-67
2022/07/29 05:11:52;;;;;;;13.88;12.50;;;;;;;20.34;70.02;95054.44;5056078;28;20193;-67
2022/07/29 05:14:21;;;;;;;13.45;12.05;;;;;;;20.33;69.83;95058.44;5055522;28;20285;-67
2022/07/29 05:16:49;;;;;;;13.45;12.15;;;;;;;20.34;69.20;95052.44;5055644;28;20560;-67
2022/07/29 05:19:17;;;;;;;12.48;11.27;;;;;;;20.39;69.78;95056.78;5055034;28;20202;-67
2022/07/29 05:21:47;;;;;;;11.05;10.05;;;;;;;20.42;69.92;95056.75;5054790;28;20221;-67
2022/07/29 05:24:16;;;;;;;12.35;11.10;;;;;;;20.45;69.79;95063.53;5055689;28;20244;-67
2022/07/29 05:26:45;;;;;;;12.02;10.88;;;;;;;20.50;70.13;95056.69;5055211;28;20202;-67
2022/07/29 05:29:12;;;;;;;12.35;11.20;;;;;;;20.53;69.68;95059.44;5054653;28;20201;-67
2022/07/29 05:31:40;;;;;;;11.32;10.23;;;;;;;20.54;69.16;95058.22;5054335;28;20222;-67
2022/07/29 05:34:09;;;;;;;11.27;10.20;;;;;;;20.58;68.81;95056.19;5055177;28;20201;-68
2022/07/29 05:36:37;;;;;;;12.32;10.63;;;;;;;20.59;69.32;95057.78;5055597;28;20209;-70
2022/07/29 05:39:05;;;;;;;13.13;10.48;;;;;;;20.59;68.69;95060.59;5055898;28;20198;-68
2022/07/29 05:41:33;;;;;;;11.50;10.55;;;;;;;20.60;68.78;95058.56;5056051;28;20221;-68
2022/07/29 05:44:04;;;;;;;12.00;10.80;;;;;;;20.62;69.15;95053.34;5055334;28;20194;-68
2022/07/29 05:46:32;;;;;;;13.80;10.43;;;;;;;20.62;68.78;95070.94;5055349;28;20225;-67
2022/07/29 05:48:59;;;;;;;11.95;10.95;;;;;;;20.69;68.81;95070.06;5054650;28;20213;-68
2022/07/29 05:51:26;;;;;;;11.90;10.80;;;;;;;20.77;68.56;95070.78;5054912;28;20186;-72
2022/07/29 05:53:53;;;;;;;12.55;10.70;;;;;;;20.82;69.06;95075.94;5054548;28;20194;-69
2022/07/29 05:56:23;;;;;;;12.93;11.73;;;;;;;20.89;69.18;95064.63;5055448;28;20190;-69
2022/07/29 05:58:53;;;;;;;12.77;11.57;;;;;;;20.94;69.40;95069.75;5055918;28;20200;-69
2022/07/29 06:01:20;;;;;;;12.75;11.50;;;;;;;21.00;68.62;95070.88;5055199;28;20206;-69
2022/07/29 06:03:47;;;;;;;13.57;11.48;;;;;;;21.05;68.06;95069.63;5054808;28;20209;-69
2022/07/29 06:06:14;;;;;;;13.30;12.10;;;;;;;21.12;68.34;95083.53;5055065;28;20174;-68
2022/07/29 06:08:42;;;;;;;15.00;13.60;;;;;;;21.19;68.07;95072.22;5054781;28;20284;-68
2022/07/29 06:11:09;;;;;;;15.88;13.35;;;;;;;21.24;67.69;95074.59;5054465;28;20267;-69
2022/07/29 06:13:39;;;;;;;13.07;11.77;;;;;;;21.28;68.07;95077.31;5054497;28;20214;-69
2022/07/29 06:16:09;;;;;;;14.10;12.52;;;;;;;21.33;67.81;95074.06;5054600;28;20644;-68
2022/07/29 06:18:39;;;;;;;14.10;12.80;;;;;;;21.32;67.95;95073.25;5053712;28;20209;-69
2022/07/29 06:21:09;;;;;;;13.07;11.68;;;;;;;21.29;68.85;95068.50;5055172;28;20202;-68
2022/07/29 06:23:38;;;;;;;12.35;11.35;;;;;;;21.29;68.40;95073.31;5054909;28;20186;-68
2022/07/29 06:26:08;;;;;;;13.18;11.90;;;;;;;21.29;68.48;95074.09;5054012;28;20193;-69
2022/07/29 06:28:36;;;;;;;12.85;10.75;;;;;;;21.32;68.06;95066.84;5055639;28;20288;-68
2022/07/29 06:31:06;;;;;;;12.43;11.27;;;;;;;21.37;68.00;95061.59;5059271;28;20182;-70
2022/07/29 06:33:38;;;;;;;12.13;11.02;;;;;;;21.44;67.94;95065.50;5055597;28;20232;-68
2022/07/29 06:36:14;;;;;;;11.05;10.10;;;;;;;21.53;66.95;95062.94;5058669;28;20212;-68
2022/07/29 06:38:44;;;;;;;11.10;10.02;;;;;;;21.56;66.79;95057.28;5058839;28;20200;-69
2022/07/29 06:41:15;;;;;;;10.32;9.43;;;;;;;21.60;66.75;95055.22;5058036;28;20212;-67
2022/07/29 06:43:46;;;;;;;9.73;8.93;;;;;;;21.69;66.69;95056.72;5057982;28;20255;-68
2022/07/29 06:46:17;;;;;;;8.43;7.68;;;;;;;21.80;65.89;95060.94;5058364;28;20194;-68
2022/07/29 06:48:54;;;;;;;6.85;6.32;;;;;;;21.89;64.66;95063.19;5057838;28;20683;-69
2022/07/29 06:51:22;;;;;;;6.80;5.93;;;;;;;21.98;63.85;95062.66;5057782;28;20215;-68
2022/07/29 06:53:50;;;;;;;7.72;6.20;;;;;;;22.05;63.15;95059.72;5057893;28;20696;-67
2022/07/29 06:56:18;;;;;;;7.35;6.28;;;;;;;22.09;63.12;95054.81;5058894;28;20193;-68
2022/07/29 06:58:47;;;;;;;6.38;5.75;;;;;;;22.11;62.94;95053.19;5058076;28;20190;-68
2022/07/29 07:01:17;;;;;;;6.60;6.00;;;;;;;22.14;63.11;95050.72;5057713;28;20225;-68
2022/07/29 07:03:45;;;;;;;6.32;5.75;;;;;;;22.17;62.85;95055.53;5057829;28;20206;-68
2022/07/29 07:06:12;;;;;;;6.10;5.60;;;;;;;22.19;63.07;95048.25;5057785;28;20211;-69
2022/07/29 07:08:40;;;;;;;7.50;6.82;;;;;;;22.21;62.99;95047.81;5058252;28;20193;-68
2022/07/29 07:11:07;;;;;;;7.03;6.28;;;;;;;22.22;63.62;95046.59;5057615;28;20194;-68
2022/07/29 07:13:34;;;;;;;6.47;5.88;;;;;;;22.27;64.34;95040.50;5057421;28;20202;-68
2022/07/29 07:16:04;;;;;;;7.03;6.40;;;;;;;22.35;63.78;95041.94;5057939;28;20259;-69
2022/07/29 07:18:36;;;;;;;6.43;5.75;;;;;;;22.45;63.21;95052.19;5058597;28;20182;-68
2022/07/29 07:21:08;;;;;;;6.20;5.60;;;;;;;22.46;63.33;95045.34;5057100;28;20221;-69
2022/07/29 07:23:36;;;;;;;6.55;5.95;;;;;;;22.61;62.55;95048.66;5057047;28;20421;-69
2022/07/29 07:26:05;;;;;;;6.82;5.78;;;;;;;22.67;61.79;95041.31;5057767;28;20304;-68
2022/07/29 07:28:33;;;;;;;6.47;5.80;;;;;;;22.70;61.83;95034.84;5057236;28;20264;-68
2022/07/29 07:31:01;;;;;;;6.13;5.63;;;;;;;22.76;61.94;95041.53;5057177;28;20251;-69
2022/07/29 07:33:28;;;;;;;6.93;6.30;;;;;;;22.80;61.72;95038.63;5056888;28;20233;-69
2022/07/29 07:35:57;;;;;;;5.70;5.30;;;;;;;22.80;61.67;95042.25;5057153;28;20205;-69
2022/07/29 07:38:27;;;;;;;6.13;5.55;;;;;;;22.78;61.59;95041.91;5057639;28;20620;-68
2022/07/29 07:40:53;;;;;;;5.82;5.32;;;;;;;22.80;61.85;95041.44;5056817;28;20531;-69
2022/07/29 07:43:22;;;;;;;6.55;5.95;;;;;;;22.86;61.55;95047.38;5057058;28;20216;-69
2022/07/29 07:45:49;;;;;;;6.13;5.47;;;;;;;22.94;61.40;95049.63;5057727;28;20268;-69
2022/07/29 07:48:17;;;;;;;6.32;5.82;;;;;;;23.01;61.01;95040.25;5056618;28;20201;-70
2022/07/29 07:50:45;;;;;;;5.88;5.38;;;;;;;23.01;61.03;95043.84;5057975;28;20182;-68
2022/07/29 07:53:16;;;;;;;6.40;5.90;;;;;;;23.00;60.88;95039.44;5057138;28;20292;-68
2022/07/29 07:55:44;;;;;;;5.95;5.38;;;;;;;23.01;60.90;95038.22;5056506;28;20220;-69
2022/07/29 07:58:11;;;;;;;6.18;5.78;;;;;;;23.10;60.78;95037.66;5057696;28;20190;-69
2022/07/29 08:00:38;;;;;;;6.30;5.70;;;;;;;23.24;60.36;95037.34;5056414;28;20221;-69
2022/07/29 08:03:07;;;;;;;6.88;5.50;;;;;;;23.33;60.15;95038.75;5057284;28;20247;-69
2022/07/29 08:05:33;;;;;;;5.85;5.45;;;;;;;23.35;58.84;95033.47;5056822;28;20198;-69
2022/07/29 08:08:01;;;;;;;5.65;5.25;;;;;;;23.28;58.73;95032.41;5056701;28;20197;-69
2022/07/29 08:13:27;;;;;;;5.68;5.20;;;;;;;23.34;58.80;95031.88;5041012;28;20219;-70
2022/07/29 08:16:01;;;;;;;5.40;5.00;;;;;;;23.45;59.85;95036.03;5056133;28;20220;-70
2022/07/29 08:18:30;;;;;;;6.38;5.75;;;;;;;23.49;58.67;95028.31;5056733;28;20202;-70
2022/07/29 08:21:02;;;;;;;5.50;5.00;;;;;;;23.54;59.02;95033.41;5057376;28;20210;-70
2022/07/29 08:23:38;;;;;;;5.72;5.30;;;;;;;23.70;57.54;95040.31;5056794;28;20209;-69
2022/07/29 08:26:10;;;;;;;5.13;4.72;;;;;;;23.76;58.08;95038.56;5057408;28;20190;-71
2022/07/29 08:28:40;;;;;;;5.30;4.90;;;;;;;23.87;57.49;95035.50;5056197;28;20209;-70
2022/07/29 08:31:09;;;;;;;5.32;4.93;;;;;;;23.89;57.34;95033.78;5056056;28;20193;-70
2022/07/29 08:33:37;;;;;;;4.80;4.40;;;;;;;23.94;57.00;95026.88;5055962;28;20237;-69
2022/07/29 08:36:06;;;;;;;5.25;4.93;;;;;;;23.97;57.71;95029.59;5057371;28;20232;-69
2022/07/29 08:38:34;;;;;;;5.15;4.75;;;;;;;24.03;56.54;95033.44;5055991;28;20220;-68
2022/07/29 08:41:03;;;;;;;5.32;4.93;;;;;;;24.11;56.88;95028.44;5055987;28;20222;-69
2022/07/29 08:43:34;;;;;;;5.45;4.95;;;;;;;24.14;56.21;95024.72;5056629;28;20196;-68
2022/07/29 08:46:03;;;;;;;6.55;5.78;;;;;;;24.22;56.16;95025.31;5056238;28;20205;-69
2022/07/29 08:48:32;;;;;;;6.85;6.30;;;;;;;24.27;56.36;95025.56;5056925;28;20209;-69
2022/07/29 08:51:00;;;;;;;4.88;4.40;;;;;;;24.30;56.14;95023.91;5056346;28;20289;-70
2022/07/29 08:53:28;;;;;;;6.00;5.57;;;;;;;24.41;55.93;95027.25;5056205;28;20621;-67
2022/07/29 08:55:56;;;;;;;5.75;5.25;;;;;;;24.49;54.43;95022.22;5055807;28;20202;-70
2022/07/29 08:58:29;;;;;;;5.25;4.75;;;;;;;24.53;54.88;95024.94;5055675;28;20194;-70
2022/07/29 09:01:03;;;;;;;5.13;4.72;;;;;;;24.59;54.12;95023.94;5056073;28;20717;-68
2022/07/29 09:03:32;;;;;;;5.00;4.53;;;;;;;24.73;53.79;95017.13;5055348;28;20204;-66
2022/07/29 09:06:00;;;;;;;6.28;5.78;;;;;;;24.78;54.23;95016.56;5054940;28;20205;-67
2022/07/29 09:08:31;;;;;;;5.97;5.47;;;;;;;24.88;54.80;95015.47;5055633;28;20194;-69
2022/07/29 09:11:00;;;;;;;4.93;4.63;;;;;;;25.02;52.21;95007.81;5056462;28;20225;-71
2022/07/29 09:13:28;;;;;;;4.95;4.55;;;;;;;25.14;53.96;95015.53;5055154;28;20197;-70
2022/07/29 09:15:55;;;;;;;5.20;4.65;;;;;;;25.27;52.44;95013.50;5056056;28;20269;-71
2022/07/29 09:18:42;;;;;;;5.20;4.80;;;;;;;25.28;53.31;95003.81;5056178;28;20196;-71
2022/07/29 09:24:07;;;;;;;4.72;4.43;;;;;;;25.42;52.38;95011.84;5054768;28;20625;-70
2022/07/29 09:26:37;;;;;;;5.47;4.93;;;;;;;25.53;52.51;95000.22;5055182;28;20197;-69
2022/07/29 09:29:15;;;;;;;5.40;5.00;;;;;;;25.73;50.67;95008.44;5055564;28;20551;-69
2022/07/29 09:31:44;;;;;;;5.82;5.40;;;;;;;25.76;51.41;95001.09;5055452;28;20249;-68
2022/07/29 09:34:16;;;;;;;6.00;5.47;;;;;;;25.93;51.73;95003.34;5055604;28;20201;-68
2022/07/29 09:36:45;;;;;;;5.15;4.68;;;;;;;26.07;49.63;95009.75;5055811;28;20209;-68
2022/07/29 09:39:14;;;;;;;4.78;4.47;;;;;;;26.07;50.71;95004.09;5056011;28;20202;-69
2022/07/29 09:41:49;;;;;;;5.47;5.07;;;;;;;26.21;49.91;94997.19;5054796;28;20224;-69
2022/07/29 09:44:18;;;;;;;5.25;4.85;;;;;;;26.27;48.65;94996.13;5055052;28;20189;-68
2022/07/29 09:46:58;;;;;;;5.55;5.03;;;;;;;26.24;50.24;94999.88;5054913;28;20221;-68
2022/07/29 09:49:29;;;;;;;6.07;5.57;;;;;;;26.27;48.95;95001.00;5054591;28;20236;-68
2022/07/29 09:52:07;;;;;;;5.40;4.90;;;;;;;26.36;49.62;94996.25;5055488;28;20594;-70
2022/07/29 09:54:41;;;;;;;5.60;5.05;;;;;;;26.52;46.20;94991.69;5055688;28;20189;-70
2022/07/29 09:57:12;;;;;;;5.28;4.88;;;;;;;26.50;47.11;94983.63;5054205;28;20198;-69
2022/07/29 09:59:40;;;;;;;5.32;4.93;;;;;;;26.55;48.48;94985.91;5054489;28;20214;-70
2022/07/29 10:02:13;;;;;;;5.30;4.78;;;;;;;26.62;46.30;94979.19;5054272;28;20239;-70
2022/07/29 10:04:44;;;;;;;47.67;43.72;;;;;;;26.59;48.21;94975.22;5055148;28;20263;-70
2022/07/29 10:07:11;;;;;;;19.90;18.20;;;;;;;26.64;47.14;94976.69;5054631;28;20216;-69
2022/07/29 10:09:39;;;;;;;5.90;5.30;;;;;;;26.76;46.57;94973.00;5054234;28;20205;-69
2022/07/29 10:12:10;;;;;;;6.05;5.60;;;;;;;26.77;46.43;94962.47;5055654;28;20202;-69
2022/07/29 10:14:39;;;;;;;13.18;11.98;;;;;;;26.71;46.79;94950.16;5054902;28;20519;-69
2022/07/29 10:17:09;;;;;;;8.02;7.30;;;;;;;26.79;46.14;94957.13;5055218;28;20182;-69
2022/07/29 10:19:37;;;;;;;5.72;5.30;;;;;;;27.03;45.68;94963.09;5054196;28;20237;-68
2022/07/29 10:22:08;;;;;;;5.32;4.80;;;;;;;27.04;45.99;94953.34;5054368;28;20271;-68
2022/07/29 10:24:38;;;;;;;5.88;5.35;;;;;;;27.12;45.43;94951.84;5054276;28;20343;-69
2022/07/29 10:27:07;;;;;;;7.50;6.90;;;;;;;27.13;47.22;94953.44;5054196;28;20201;-69
2022/07/29 10:29:36;;;;;;;6.28;5.82;;;;;;;27.21;46.66;94948.28;5054110;28;20204;-68
2022/07/29 10:32:26;;;;;;;6.32;5.72;;;;;;;27.21;47.10;94946.25;5054351;28;20240;-69
2022/07/29 10:35:21;;;;;;;6.32;5.82;;;;;;;27.28;45.38;94945.97;5055008;28;20186;-69
2022/07/29 10:38:03;;;;;;;5.88;5.28;;;;;;;27.28;45.88;94945.97;5054054;28;20271;-69
2022/07/29 10:43:27;;;;;;;5.72;5.22;;;;;;;27.25;46.12;94935.56;5053632;28;20229;-69
2022/07/29 10:45:59;;;;;;;5.50;5.07;;;;;;;27.33;44.11;94938.88;5054451;28;20212;-70
2022/07/29 10:48:27;;;;;;;6.53;5.57;;;;;;;27.34;45.81;94932.78;5054567;28;20202;-70
2022/07/29 10:50:58;;;;;;;5.78;5.38;;;;;;;27.51;45.52;94930.47;5054168;28;20232;-70
2022/07/29 10:53:48;;;;;;;5.75;5.35;;;;;;;27.75;44.39;94916.56;5054548;28;20190;-69
2022/07/29 10:56:27;;;;;;;6.43;6.03;;;;;;;27.90;45.62;94922.41;5053986;28;20616;-69
2022/07/29 10:59:26;;;;;;;5.68;5.28;;;;;;;27.84;44.38;94912.94;5053824;28;20197;-68
2022/07/29 11:01:53;;;;;;;5.78;5.32;;;;;;;27.90;44.09;94907.44;5055312;28;20221;-69
2022/07/29 11:04:59;;;;;;;6.38;5.88;;;;;;;27.96;44.96;94908.38;5054350;28;20630;-69
2022/07/29 11:07:29;;;;;;;6.10;5.60;;;;;;;28.14;44.37;94899.09;5051413;28;20213;-69
2022/07/29 11:10:23;;;;;;;5.97;5.47;;;;;;;28.17;42.99;94896.13;5053774;28;20197;-68
2022/07/29 11:12:52;;;;;;;7.90;5.90;;;;;;;28.27;42.40;94894.84;5054050;28;20208;-69
2022/07/29 11:15:21;;;;;;;6.65;6.10;;;;;;;28.28;43.21;94898.47;5056210;28;20240;-69
2022/07/29 11:18:07;;;;;;;6.32;5.82;;;;;;;28.55;42.75;94892.81;5058428;28;20205;-69
2022/07/29 11:20:41;;;;;;;6.70;6.10;;;;;;;28.68;41.52;94889.78;5057939;28;20488;-69
2022/07/29 11:23:23;;;;;;;5.97;5.47;;;;;;;28.74;42.65;94889.94;5057290;28;20240;-69
2022/07/29 11:26:19;;;;;;;7.75;5.85;;;;;;;28.80;42.78;94885.22;5058206;28;20247;-69
2022/07/29 11:29:00;;;;;;;8.77;7.97;;;;;;;29.03;41.13;94892.25;5052296;28;20205;-69
2022/07/29 11:31:37;;;;;;;7.32;6.78;;;;;;;29.04;40.75;94890.97;5057535;28;20190;-69
2022/07/29 11:34:24;;;;;;;6.65;6.15;;;;;;;29.06;41.05;94887.69;5057681;28;20293;-69
2022/07/29 11:37:17;;;;;;;7.05;6.45;;;;;;;29.16;40.79;94890.00;5057318;28;20204;-69
2022/07/29 11:39:47;;;;;;;6.70;6.22;;;;;;;29.33;40.01;94886.75;5043722;28;20205;-69
2022/07/29 11:42:45;;;;;;;6.60;6.10;;;;;;;29.37;39.37;94887.38;5056932;28;20209;-69
2022/07/29 11:45:17;;;;;;;6.85;6.35;;;;;;;29.53;39.81;94887.00;5056662;28;20193;-69
2022/07/29 11:47:50;;;;;;;6.68;6.18;;;;;;;29.53;40.38;94878.47;5056700;28;20194;-69
2022/07/29 11:50:28;;;;;;;6.28;5.78;;;;;;;29.53;40.11;94872.00;5057745;28;20193;-70
2022/07/29 11:52:55;;;;;;;7.32;6.63;;;;;;;29.51;39.78;94876.09;5056850;28;20200;-69
2022/07/29 11:55:24;;;;;;;6.38;5.88;;;;;;;29.62;40.71;94877.66;5056663;28;20217;-70
2022/07/29 11:57:56;;;;;;;6.88;6.07;;;;;;;29.65;39.30;94874.63;5057680;28;20200;-70